Paso Robles Municipal Airport Paso Robles US
ICAO: KPRB
IATA: PRB
Category: Medium
Scheduled Services: No

Elevation: 840 ft
TransAlt. 18000 ft.

Airport Communications:
ASOS:132.175
OAKLAND CNTR:128.7
HAWTHORNE RDO:122.4
CTAF/UNICOM:123

KPRB Zoom In..

If you have problems with the map follow the link
https://www.worldairports.se/pages/airport.php?
ICAO=KPRB

Runways:

(A) RW 01 length 6008 ft width 150 ft
---- / hdg 14

(B) RW 13 length 4701 ft width 100 ft
---- / hdg 129

(C) RW 19 length 6008 ft width 150 ft
---- / hdg 194

(D) RW 31 length 4701 ft width 100 ft
---- / hdg 309

Location; KPRB
Day. 06 / Time. 02.53 Zulu
* Altimeter: 30.06
* Temperature: 13° c. 55.4°f.
* Wind from: 000° Speed 00 kn.
Dewpoint: 11° c.
Visibility: 10 Statute Miles.
Clouds: Broken 1100 ft.

KPRB 060253Z AUTO 00000KT 10SM BKN011 13/11 A3006 RMK AO2 SLP179 T01280111 55000 $


Wind - Calm.

 
 
jpsmedia worldairports.se 2019   terms of use